createdAt,value
2022-11-26T00:00:53.637Z,6.05
2022-11-26T00:01:53.678Z,6.05
2022-11-26T00:02:53.765Z,6.01
2022-11-26T00:03:53.650Z,5.96
2022-11-26T00:04:53.590Z,5.95
2022-11-26T00:05:53.578Z,5.99
2022-11-26T00:06:53.566Z,5.98
2022-11-26T00:07:53.881Z,5.96
2022-11-26T00:08:53.548Z,5.95
2022-11-26T00:09:53.540Z,5.99
2022-11-26T00:10:53.530Z,5.96
2022-11-26T00:11:53.509Z,5.90
2022-11-26T00:12:53.500Z,5.95
2022-11-26T00:13:53.488Z,5.96
2022-11-26T00:14:53.504Z,5.93
2022-11-26T00:15:53.462Z,5.87
2022-11-26T00:16:53.535Z,5.81
2022-11-26T00:17:53.441Z,5.83
2022-11-26T00:18:53.432Z,5.85
2022-11-26T00:19:53.448Z,5.85
2022-11-26T00:20:53.415Z,5.83
2022-11-26T00:21:53.401Z,5.75
2022-11-26T00:22:53.386Z,5.69
2022-11-26T00:23:53.373Z,5.63
2022-11-26T00:24:53.363Z,5.55
2022-11-26T00:25:53.350Z,5.55
2022-11-26T00:26:53.341Z,5.55
2022-11-26T00:27:53.330Z,5.51
2022-11-26T00:28:53.319Z,5.49
2022-11-26T00:29:53.342Z,5.47
2022-11-26T00:30:53.373Z,5.44
2022-11-26T00:31:53.432Z,5.44
2022-11-26T00:32:53.366Z,5.35
2022-11-26T00:33:53.396Z,5.32
2022-11-26T00:34:53.397Z,5.30
2022-11-26T00:35:53.270Z,5.35
2022-11-26T00:36:53.227Z,5.42
2022-11-26T00:37:53.216Z,5.49
2022-11-26T00:38:53.216Z,5.48
2022-11-26T00:39:53.192Z,5.47
2022-11-26T00:40:53.181Z,5.42
2022-11-26T00:41:53.175Z,5.40
2022-11-26T00:42:56.246Z,5.37
2022-11-26T00:43:53.145Z,5.38
2022-11-26T00:44:53.137Z,5.41
2022-11-26T00:45:53.195Z,5.49
2022-11-26T00:46:53.112Z,5.45
2022-11-26T00:47:53.099Z,5.45
2022-11-26T00:48:53.091Z,5.41
2022-11-26T00:49:53.076Z,5.35
2022-11-26T00:50:53.068Z,5.24
2022-11-26T00:51:53.080Z,5.23
2022-11-26T00:52:53.047Z,5.19
2022-11-26T00:53:53.033Z,5.15
2022-11-26T00:54:53.274Z,5.08
2022-11-26T00:55:53.019Z,4.99
2022-11-26T00:56:53.006Z,4.94
2022-11-26T00:57:52.989Z,4.90
2022-11-26T00:58:52.979Z,4.88
2022-11-26T00:59:52.967Z,4.83
2022-11-26T01:00:53.019Z,4.75
2022-11-26T01:01:53.024Z,4.71
2022-11-26T01:02:52.941Z,4.72
2022-11-26T01:03:52.929Z,4.67
2022-11-26T01:04:52.915Z,4.65
2022-11-26T01:05:52.917Z,4.67
2022-11-26T01:06:52.899Z,4.77
2022-11-26T01:07:53.043Z,4.83
2022-11-26T01:08:52.886Z,4.77
2022-11-26T01:09:52.865Z,4.80
2022-11-26T01:10:52.855Z,5.05
2022-11-26T01:11:54.495Z,5.12
2022-11-26T01:12:52.833Z,5.09
2022-11-26T01:13:52.821Z,5.06
2022-11-26T01:14:52.811Z,4.99
2022-11-26T01:15:52.798Z,4.93
2022-11-26T01:16:52.888Z,4.84
2022-11-26T01:17:52.777Z,4.80
2022-11-26T01:18:53.017Z,4.74
2022-11-26T01:19:52.755Z,4.71
2022-11-26T01:20:52.746Z,4.67
2022-11-26T01:21:52.736Z,4.62
2022-11-26T01:22:52.723Z,4.64
2022-11-26T01:23:52.743Z,4.69
2022-11-26T01:24:52.704Z,4.69
2022-11-26T01:25:52.708Z,4.68
2022-11-26T01:26:52.682Z,4.74
2022-11-26T01:27:52.669Z,4.75
2022-11-26T01:28:52.666Z,4.77
2022-11-26T01:29:52.650Z,4.74
2022-11-26T01:30:52.643Z,4.75
2022-11-26T01:31:52.723Z,4.75
2022-11-26T01:32:52.618Z,4.69
2022-11-26T01:33:52.608Z,4.62
2022-11-26T01:34:52.597Z,4.57
2022-11-26T01:35:52.587Z,4.56
2022-11-26T01:36:52.575Z,4.54
2022-11-26T01:37:52.564Z,4.50
2022-11-26T01:38:52.556Z,4.56
2022-11-26T01:39:52.566Z,4.62
2022-11-26T01:40:52.534Z,4.61
2022-11-26T01:41:52.529Z,4.56
2022-11-26T01:42:52.513Z,4.59
2022-11-26T01:43:52.497Z,4.53
2022-11-26T01:44:52.491Z,4.51
2022-11-26T01:45:52.504Z,4.50
2022-11-26T01:46:52.469Z,4.46
2022-11-26T01:47:52.460Z,4.42
2022-11-26T01:48:52.451Z,4.32
2022-11-26T01:49:52.439Z,4.32
2022-11-26T01:50:52.427Z,4.36
2022-11-26T01:51:52.411Z,4.36
2022-11-26T01:52:52.405Z,4.34
2022-11-26T01:53:52.389Z,4.35
2022-11-26T01:54:52.390Z,4.31
2022-11-26T01:55:52.394Z,4.29
2022-11-26T01:56:52.359Z,4.25
2022-11-26T01:57:52.346Z,4.20
2022-11-26T01:58:52.339Z,4.13
2022-11-26T01:59:52.326Z,4.11
2022-11-26T02:00:52.355Z,4.07
2022-11-26T02:01:52.352Z,4.00
2022-11-26T02:02:52.291Z,3.92
2022-11-26T02:03:52.284Z,3.89
2022-11-26T02:04:52.276Z,3.81
2022-11-26T02:05:52.257Z,3.81
2022-11-26T02:06:52.347Z,3.80
2022-11-26T02:07:52.332Z,3.82
2022-11-26T02:08:52.226Z,3.82
2022-11-26T02:09:52.212Z,3.88
2022-11-26T02:10:52.212Z,3.90
2022-11-26T02:11:52.214Z,3.86
2022-11-26T02:12:52.184Z,3.82
2022-11-26T02:13:52.181Z,3.77
2022-11-26T02:14:52.159Z,3.74
2022-11-26T02:15:52.146Z,3.78
2022-11-26T02:16:52.189Z,3.77
2022-11-26T02:17:52.124Z,3.78
2022-11-26T02:18:52.118Z,3.78
2022-11-26T02:19:52.102Z,3.72
2022-11-26T02:20:52.095Z,3.68
2022-11-26T02:21:52.085Z,3.64
2022-11-26T02:22:52.071Z,3.56
2022-11-26T02:23:52.062Z,3.50
2022-11-26T02:24:52.048Z,3.49
2022-11-26T02:25:52.037Z,3.42
2022-11-26T02:26:52.024Z,3.39
2022-11-26T02:27:52.041Z,3.39
2022-11-26T02:28:52.003Z,3.41
2022-11-26T02:29:51.992Z,3.41
2022-11-26T02:30:51.981Z,3.35
2022-11-26T02:31:52.178Z,3.31
2022-11-26T02:32:51.958Z,3.31
2022-11-26T02:33:51.949Z,3.30
2022-11-26T02:34:51.938Z,3.25
2022-11-26T02:35:51.928Z,3.12
2022-11-26T02:36:51.914Z,3.10
2022-11-26T02:37:51.906Z,3.02
2022-11-26T02:38:51.894Z,2.95
2022-11-26T02:39:51.886Z,2.92
2022-11-26T02:40:51.875Z,2.90
2022-11-26T02:41:51.859Z,2.86
2022-11-26T02:42:51.848Z,2.87
2022-11-26T02:43:51.861Z,2.84
2022-11-26T02:44:51.827Z,2.83
2022-11-26T02:45:51.854Z,2.80
2022-11-26T02:46:51.806Z,2.77
2022-11-26T02:47:51.793Z,2.79
2022-11-26T02:48:51.790Z,2.81
2022-11-26T02:49:51.777Z,2.81
2022-11-26T02:50:51.760Z,2.80
2022-11-26T02:51:51.749Z,2.83
2022-11-26T02:52:51.739Z,2.77
2022-11-26T02:53:51.737Z,2.77
2022-11-26T02:54:51.825Z,2.79
2022-11-26T02:55:51.706Z,2.73
2022-11-26T02:56:51.703Z,2.74
2022-11-26T02:57:51.684Z,2.83
2022-11-26T02:58:51.675Z,2.81
2022-11-26T02:59:51.690Z,2.83
2022-11-26T03:00:51.714Z,2.89
2022-11-26T03:01:51.641Z,2.84
2022-11-26T03:02:51.627Z,2.92
2022-11-26T03:03:51.744Z,2.95
2022-11-26T03:04:51.607Z,2.95
2022-11-26T03:05:51.599Z,2.98
2022-11-26T03:06:51.586Z,2.98
2022-11-26T03:07:51.714Z,2.90
2022-11-26T03:08:51.563Z,2.89
2022-11-26T03:09:51.553Z,2.84
2022-11-26T03:10:51.541Z,2.86
2022-11-26T03:11:51.592Z,2.81
2022-11-26T03:12:51.521Z,2.77
2022-11-26T03:13:51.514Z,2.73
2022-11-26T03:14:51.498Z,2.71
2022-11-26T03:15:51.513Z,2.71
2022-11-26T03:16:51.565Z,2.66
2022-11-26T03:17:51.466Z,2.68
2022-11-26T03:18:51.452Z,2.59
2022-11-26T03:19:51.449Z,2.61
2022-11-26T03:20:52.634Z,2.58
2022-11-26T03:21:51.422Z,2.58
2022-11-26T03:22:51.410Z,2.61
2022-11-26T03:23:51.400Z,2.63
2022-11-26T03:24:51.389Z,2.62
2022-11-26T03:25:51.387Z,2.65
2022-11-26T03:26:51.366Z,2.69
2022-11-26T03:27:51.357Z,2.73
2022-11-26T03:28:51.345Z,2.74
2022-11-26T03:29:51.338Z,2.68
2022-11-26T03:30:51.326Z,2.66
2022-11-26T03:31:51.391Z,2.65
2022-11-26T03:32:51.300Z,2.62
2022-11-26T03:33:51.292Z,2.53
2022-11-26T03:34:51.282Z,2.53
2022-11-26T03:35:51.272Z,2.45
2022-11-26T03:36:51.258Z,2.37
2022-11-26T03:37:51.252Z,2.26
2022-11-26T03:38:51.237Z,2.19
2022-11-26T03:39:51.230Z,2.12
2022-11-26T03:40:51.214Z,2.12
2022-11-26T03:41:51.206Z,2.19
2022-11-26T03:42:51.195Z,2.19
2022-11-26T03:43:51.181Z,2.18
2022-11-26T03:44:51.175Z,2.15
2022-11-26T03:45:51.240Z,2.04
2022-11-26T03:46:51.150Z,1.98
2022-11-26T03:47:51.161Z,1.88
2022-11-26T03:48:51.127Z,1.83
2022-11-26T03:49:51.125Z,1.82
2022-11-26T03:50:51.108Z,1.82
2022-11-26T03:51:51.097Z,1.79
2022-11-26T03:52:51.087Z,1.83
2022-11-26T03:53:51.080Z,1.92
2022-11-26T03:54:51.064Z,1.98
2022-11-26T03:55:51.056Z,1.92
2022-11-26T03:56:51.043Z,1.89
2022-11-26T03:57:51.032Z,1.89
2022-11-26T03:58:51.018Z,1.90
2022-11-26T03:59:51.009Z,1.93
2022-11-26T04:00:50.998Z,1.95
2022-11-26T04:01:51.062Z,1.93
2022-11-26T04:02:51.131Z,1.98
2022-11-26T04:03:50.996Z,1.95
2022-11-26T04:04:50.956Z,2.01
2022-11-26T04:05:50.946Z,2.05
2022-11-26T04:06:50.936Z,2.09
2022-11-26T04:07:50.955Z,2.09
2022-11-26T04:08:50.912Z,2.02
2022-11-26T04:09:50.904Z,2.00
2022-11-26T04:10:50.892Z,1.92
2022-11-26T04:11:50.879Z,1.88
2022-11-26T04:12:50.871Z,1.79
2022-11-26T04:13:50.863Z,1.72
2022-11-26T04:14:50.846Z,1.71
2022-11-26T04:15:50.838Z,1.71
2022-11-26T04:16:50.877Z,1.67
2022-11-26T04:17:50.813Z,1.64
2022-11-26T04:18:50.804Z,1.57
2022-11-26T04:19:50.827Z,1.56
2022-11-26T04:20:53.269Z,1.52
2022-11-26T04:21:50.772Z,1.57
2022-11-26T04:22:50.760Z,1.56
2022-11-26T04:23:50.760Z,1.57
2022-11-26T04:24:50.735Z,1.54
2022-11-26T04:25:50.729Z,1.50
2022-11-26T04:26:50.719Z,1.53
2022-11-26T04:27:50.706Z,1.61
2022-11-26T04:28:50.749Z,1.67
2022-11-26T04:29:50.685Z,1.65
2022-11-26T04:30:50.676Z,1.65
2022-11-26T04:31:50.738Z,1.65
2022-11-26T04:32:50.654Z,1.61
2022-11-26T04:33:50.645Z,1.60
2022-11-26T04:34:50.629Z,1.63
2022-11-26T04:35:50.651Z,1.64
2022-11-26T04:36:50.608Z,1.63
2022-11-26T04:37:50.598Z,1.61
2022-11-26T04:38:50.634Z,1.65
2022-11-26T04:39:50.577Z,1.70
2022-11-26T04:40:50.567Z,1.72
2022-11-26T04:41:50.555Z,1.83
2022-11-26T04:42:50.542Z,1.88
2022-11-26T04:43:50.534Z,1.85
2022-11-26T04:44:50.520Z,1.83
2022-11-26T04:45:50.586Z,1.86
2022-11-26T04:46:50.497Z,1.82
2022-11-26T04:47:50.491Z,1.83
2022-11-26T04:48:50.479Z,1.83
2022-11-26T04:49:50.467Z,1.77
2022-11-26T04:50:50.454Z,1.70
2022-11-26T04:51:50.467Z,1.68
2022-11-26T04:52:50.431Z,1.64
2022-11-26T04:53:54.626Z,1.68
2022-11-26T04:54:50.412Z,1.67
2022-11-26T04:55:50.400Z,1.71
2022-11-26T04:56:50.388Z,1.77
2022-11-26T04:57:50.383Z,1.83
2022-11-26T04:58:50.371Z,1.83
2022-11-26T04:59:50.355Z,1.85
2022-11-26T05:00:51.116Z,1.85
2022-11-26T05:01:50.336Z,1.83
2022-11-26T05:02:50.423Z,1.86
2022-11-26T05:03:50.316Z,1.83
2022-11-26T05:04:50.303Z,1.82
2022-11-26T05:05:50.291Z,1.79
2022-11-26T05:06:50.280Z,1.77
2022-11-26T05:07:50.360Z,1.79
2022-11-26T05:08:50.257Z,1.85
2022-11-26T05:09:50.251Z,1.89
2022-11-26T05:10:50.237Z,1.98
2022-11-26T05:11:50.226Z,2.05
2022-11-26T05:12:50.217Z,2.12
2022-11-26T05:13:50.205Z,2.12
2022-11-26T05:14:50.192Z,2.19
2022-11-26T05:15:50.193Z,2.22
2022-11-26T05:16:50.284Z,2.26
2022-11-26T05:17:50.164Z,2.29
2022-11-26T05:18:50.153Z,2.32
2022-11-26T05:19:50.141Z,2.30
2022-11-26T05:20:50.131Z,2.36
2022-11-26T05:21:50.129Z,2.37
2022-11-26T05:22:50.105Z,2.37
2022-11-26T05:23:50.123Z,2.37
2022-11-26T05:24:50.084Z,2.43
2022-11-26T05:25:50.075Z,2.43
2022-11-26T05:26:53.754Z,2.40
2022-11-26T05:27:51.079Z,2.40
2022-11-26T05:28:50.051Z,2.40
2022-11-26T05:29:50.031Z,2.45
2022-11-26T05:30:50.024Z,2.55
2022-11-26T05:31:50.100Z,2.58
2022-11-26T05:32:49.998Z,2.62
2022-11-26T05:33:50.023Z,2.61
2022-11-26T05:34:49.976Z,2.59
2022-11-26T05:35:49.969Z,2.53
2022-11-26T05:36:49.953Z,2.47
2022-11-26T05:37:49.948Z,2.43
2022-11-26T05:38:49.975Z,2.44
2022-11-26T05:39:49.950Z,2.47
2022-11-26T05:40:49.908Z,2.53
2022-11-26T05:41:49.906Z,2.61
2022-11-26T05:42:49.889Z,2.66
2022-11-26T05:43:49.883Z,2.69
2022-11-26T05:44:49.869Z,2.71
2022-11-26T05:45:49.870Z,2.63
2022-11-26T05:46:49.845Z,2.63
2022-11-26T05:47:49.837Z,2.62
2022-11-26T05:48:49.829Z,2.59
2022-11-26T05:49:49.814Z,2.58
2022-11-26T05:50:54.344Z,2.61
2022-11-26T05:51:49.791Z,2.61
2022-11-26T05:52:49.781Z,2.66
2022-11-26T05:53:49.784Z,2.68
2022-11-26T05:54:49.757Z,2.66
2022-11-26T05:55:49.782Z,2.68
2022-11-26T05:56:52.055Z,2.79
2022-11-26T05:57:49.729Z,2.87
2022-11-26T05:58:49.735Z,2.90
2022-11-26T05:59:49.707Z,2.90
2022-11-26T06:00:49.692Z,2.95
2022-11-26T06:01:49.737Z,2.98
2022-11-26T06:02:49.781Z,3.01
2022-11-26T06:03:49.734Z,3.04
2022-11-26T06:04:49.649Z,3.07
2022-11-26T06:05:49.639Z,3.15
2022-11-26T06:06:49.626Z,3.17
2022-11-26T06:07:49.664Z,3.23
2022-11-26T06:08:49.603Z,3.30
2022-11-26T06:09:49.594Z,3.33
2022-11-26T06:10:49.583Z,3.37
2022-11-26T06:11:49.602Z,3.44
2022-11-26T06:12:49.559Z,3.54
2022-11-26T06:13:49.556Z,3.56
2022-11-26T06:14:49.829Z,3.60
2022-11-26T06:15:49.527Z,3.59
2022-11-26T06:16:49.659Z,3.62
2022-11-26T06:17:49.510Z,3.63
2022-11-26T06:18:49.496Z,3.70
2022-11-26T06:19:49.486Z,3.68
2022-11-26T06:20:49.474Z,3.68
2022-11-26T06:21:49.463Z,3.75
2022-11-26T06:22:49.453Z,3.74
2022-11-26T06:23:55.850Z,3.78
2022-11-26T06:24:50.458Z,3.77
2022-11-26T06:25:49.419Z,3.75
2022-11-26T06:26:49.406Z,3.75
2022-11-26T06:27:49.424Z,3.77
2022-11-26T06:28:49.385Z,3.82
2022-11-26T06:29:49.376Z,3.86
2022-11-26T06:30:49.368Z,3.88
2022-11-26T06:31:49.403Z,3.88
2022-11-26T06:32:49.347Z,3.90
2022-11-26T06:33:49.336Z,3.88
2022-11-26T06:34:53.809Z,3.88
2022-11-26T06:35:49.319Z,3.89
2022-11-26T06:36:49.302Z,3.92
2022-11-26T06:37:49.291Z,3.93
2022-11-26T06:38:49.280Z,3.95
2022-11-26T06:39:49.267Z,3.99
2022-11-26T06:40:49.261Z,4.00
2022-11-26T06:41:49.247Z,4.02
2022-11-26T06:42:49.239Z,4.00
2022-11-26T06:43:49.246Z,4.02
2022-11-26T06:44:49.218Z,4.00
2022-11-26T06:45:49.267Z,4.07
2022-11-26T06:46:49.197Z,4.10
2022-11-26T06:47:49.186Z,4.11
2022-11-26T06:48:49.175Z,4.11
2022-11-26T06:49:49.162Z,4.14
2022-11-26T06:50:49.154Z,4.14
2022-11-26T06:51:49.141Z,4.17
2022-11-26T06:52:49.132Z,4.16
2022-11-26T06:53:49.121Z,4.13
2022-11-26T06:54:49.112Z,4.16
2022-11-26T06:55:49.101Z,4.16
2022-11-26T06:56:49.091Z,4.18
2022-11-26T06:57:49.079Z,4.18
2022-11-26T06:58:49.067Z,4.20
2022-11-26T06:59:49.080Z,4.20
2022-11-26T07:00:49.047Z,4.20
2022-11-26T07:01:49.245Z,4.21
2022-11-26T07:02:49.068Z,4.21
2022-11-26T07:03:49.010Z,4.21
2022-11-26T07:04:48.998Z,4.21
2022-11-26T07:05:48.988Z,4.24
2022-11-26T07:06:48.978Z,4.24
2022-11-26T07:07:49.012Z,4.24
2022-11-26T07:08:48.952Z,4.26
2022-11-26T07:09:48.944Z,4.26
2022-11-26T07:10:49.424Z,4.26
2022-11-26T07:11:48.926Z,4.28
2022-11-26T07:12:48.909Z,4.26
2022-11-26T07:13:48.894Z,4.29
2022-11-26T07:14:48.893Z,4.32
2022-11-26T07:15:48.996Z,4.32
2022-11-26T07:16:48.863Z,4.28
2022-11-26T07:17:48.856Z,4.31
2022-11-26T07:18:48.843Z,4.35
2022-11-26T07:19:48.826Z,4.35
2022-11-26T07:20:48.817Z,4.39
2022-11-26T07:21:48.809Z,4.42
2022-11-26T07:22:48.795Z,4.39
2022-11-26T07:23:48.800Z,4.42
2022-11-26T07:24:48.778Z,4.43
2022-11-26T07:25:48.760Z,4.42
2022-11-26T07:26:48.751Z,4.43
2022-11-26T07:27:48.742Z,4.46
2022-11-26T07:28:48.728Z,4.49
2022-11-26T07:29:48.715Z,4.50
2022-11-26T07:30:48.706Z,4.50
2022-11-26T07:31:48.739Z,4.51
2022-11-26T07:32:48.683Z,4.53
2022-11-26T07:33:48.670Z,4.54
2022-11-26T07:34:48.659Z,4.57
2022-11-26T07:35:48.645Z,4.57
2022-11-26T07:36:48.636Z,4.59
2022-11-26T07:37:48.625Z,4.61
2022-11-26T07:38:48.612Z,4.62
2022-11-26T07:39:48.600Z,4.67
2022-11-26T07:40:48.589Z,4.68
2022-11-26T07:41:48.585Z,4.68
2022-11-26T07:42:53.039Z,4.67
2022-11-26T07:43:48.635Z,4.71
2022-11-26T07:44:48.545Z,4.69
2022-11-26T07:45:48.664Z,4.71
2022-11-26T07:46:48.521Z,4.71
2022-11-26T07:47:48.534Z,4.71
2022-11-26T07:48:48.497Z,4.74
2022-11-26T07:49:48.486Z,4.75
2022-11-26T07:50:48.478Z,4.79
2022-11-26T07:51:48.463Z,4.83
2022-11-26T07:52:48.452Z,4.84
2022-11-26T07:53:48.440Z,4.84
2022-11-26T07:54:48.433Z,4.86
2022-11-26T07:55:48.419Z,4.90
2022-11-26T07:56:48.407Z,4.93
2022-11-26T07:57:48.402Z,4.93
2022-11-26T07:58:48.391Z,4.93
2022-11-26T07:59:48.371Z,4.93
2022-11-26T08:00:53.200Z,4.96
2022-11-26T08:01:48.422Z,4.94
2022-11-26T08:02:48.401Z,4.96
2022-11-26T08:03:48.360Z,4.97
2022-11-26T08:04:48.321Z,5.01
2022-11-26T08:05:48.314Z,5.01
2022-11-26T08:06:48.298Z,5.02
2022-11-26T08:07:48.325Z,5.05
2022-11-26T08:08:48.279Z,5.04
2022-11-26T08:09:48.263Z,5.05
2022-11-26T08:10:48.259Z,5.04
2022-11-26T08:11:48.248Z,5.06
2022-11-26T08:12:48.238Z,5.09
2022-11-26T08:13:48.311Z,5.09
2022-11-26T08:14:48.218Z,5.11
2022-11-26T08:15:48.205Z,5.14
2022-11-26T08:16:48.274Z,5.14
2022-11-26T08:17:48.189Z,5.15
2022-11-26T08:18:48.189Z,5.17
2022-11-26T08:19:48.227Z,5.17
2022-11-26T08:20:48.207Z,5.19
2022-11-26T08:21:48.153Z,5.24
2022-11-26T08:22:48.130Z,5.24
2022-11-26T08:23:48.115Z,5.26
2022-11-26T08:24:48.106Z,5.30
2022-11-26T08:26:13.994Z,5.29
2022-11-26T08:26:48.084Z,5.32
2022-11-26T08:27:48.073Z,5.32
2022-11-26T08:28:48.067Z,5.33
2022-11-26T08:29:48.049Z,5.33
2022-11-26T08:30:48.041Z,5.37
2022-11-26T08:31:48.076Z,5.38
2022-11-26T08:32:48.024Z,5.40
2022-11-26T08:33:48.011Z,5.41
2022-11-26T08:34:47.995Z,5.44
2022-11-26T08:36:05.882Z,5.44
2022-11-26T08:36:48.997Z,5.47
2022-11-26T08:37:47.960Z,5.51
2022-11-26T08:38:47.951Z,5.52
2022-11-26T08:39:47.942Z,5.55
2022-11-26T08:40:47.930Z,5.56
2022-11-26T08:41:51.915Z,5.59
2022-11-26T08:42:47.907Z,5.59
2022-11-26T08:44:47.887Z,5.62
2022-11-26T08:45:47.893Z,5.62
2022-11-26T08:46:47.863Z,5.63
2022-11-26T08:47:47.851Z,5.66
2022-11-26T08:48:47.841Z,5.70
2022-11-26T08:49:47.828Z,5.77
2022-11-26T08:50:47.819Z,5.78
2022-11-26T08:51:47.830Z,5.80
2022-11-26T08:52:47.798Z,5.78
2022-11-26T08:53:47.834Z,5.83
2022-11-26T08:54:48.138Z,5.85
2022-11-26T08:56:00.048Z,5.85
2022-11-26T08:56:48.779Z,5.87
2022-11-26T08:57:47.743Z,5.84
2022-11-26T08:58:47.748Z,5.88
2022-11-26T08:59:47.718Z,5.87
2022-11-26T09:00:47.707Z,5.90
2022-11-26T09:01:47.734Z,5.93
2022-11-26T09:02:47.938Z,5.96
2022-11-26T09:03:47.804Z,6.01
2022-11-26T09:04:47.671Z,6.03
2022-11-26T09:05:47.653Z,6.05
2022-11-26T09:06:47.644Z,6.05
2022-11-26T09:07:49.184Z,6.06
2022-11-26T09:08:47.622Z,6.11
2022-11-26T09:09:47.609Z,6.11
2022-11-26T09:10:47.601Z,6.13
2022-11-26T09:11:47.586Z,6.11
2022-11-26T09:12:47.579Z,6.14
2022-11-26T09:13:47.563Z,6.17
2022-11-26T09:14:47.582Z,6.21
2022-11-26T09:15:47.541Z,6.28
2022-11-26T09:16:47.641Z,6.33
2022-11-26T09:17:47.533Z,6.36
2022-11-26T09:18:47.512Z,6.38
2022-11-26T09:19:47.507Z,6.35
2022-11-26T09:20:47.577Z,6.39
2022-11-26T09:21:47.478Z,6.39
2022-11-26T09:22:47.477Z,6.35
2022-11-26T09:23:47.495Z,6.35
2022-11-26T09:24:47.445Z,6.36
2022-11-26T09:25:47.454Z,6.36
2022-11-26T09:26:47.442Z,6.38
2022-11-26T09:27:47.413Z,6.40
2022-11-26T09:28:47.401Z,6.43
2022-11-26T09:29:47.389Z,6.46
2022-11-26T09:30:47.382Z,6.48
2022-11-26T09:32:21.183Z,6.51
2022-11-26T09:32:48.518Z,6.45
2022-11-26T09:33:47.359Z,6.46
2022-11-26T09:34:47.336Z,6.48
2022-11-26T09:35:47.326Z,6.51
2022-11-26T09:36:47.312Z,6.55
2022-11-26T09:37:51.350Z,6.58
2022-11-26T09:38:47.293Z,6.63
2022-11-26T09:39:47.304Z,6.61
2022-11-26T09:40:47.273Z,6.63
2022-11-26T09:41:47.259Z,6.65
2022-11-26T09:42:47.250Z,6.69
2022-11-26T09:43:49.383Z,6.65
2022-11-26T09:44:47.227Z,6.71
2022-11-26T09:45:47.291Z,6.72
2022-11-26T09:47:10.395Z,6.75
2022-11-26T09:47:48.228Z,6.79
2022-11-26T09:48:47.183Z,6.82
2022-11-26T09:49:47.177Z,6.82
2022-11-26T09:50:47.160Z,6.86
2022-11-26T09:51:47.200Z,6.86
2022-11-26T09:52:47.135Z,6.89
2022-11-26T09:53:47.128Z,6.91
2022-11-26T09:54:47.116Z,6.93
2022-11-26T09:55:47.121Z,6.94
2022-11-26T09:56:47.093Z,6.99
2022-11-26T09:57:47.082Z,6.99
2022-11-26T09:58:47.088Z,7.05
2022-11-26T09:59:47.055Z,7.12
2022-11-26T10:00:47.106Z,7.15
2022-11-26T10:01:47.128Z,7.21
2022-11-26T10:02:47.028Z,7.29
2022-11-26T10:06:04.846Z,7.36
2022-11-26T10:06:58.822Z,7.29
2022-11-26T10:07:58.942Z,7.30
2022-11-26T10:08:58.802Z,7.29
2022-11-26T10:09:58.789Z,7.27
2022-11-26T10:13:11.302Z,7.30
2022-11-26T10:13:42.603Z,7.29
2022-11-26T10:14:42.054Z,7.29
2022-11-26T10:15:41.552Z,7.29
2022-11-26T10:16:41.628Z,7.30
2022-11-26T10:17:41.532Z,7.33
2022-11-26T10:18:41.525Z,7.36
2022-11-26T10:19:41.509Z,7.41
2022-11-26T10:20:41.498Z,7.39
2022-11-26T10:22:00.386Z,7.37
2022-11-26T10:22:42.499Z,7.41
2022-11-26T10:23:41.467Z,7.47
2022-11-26T10:24:42.020Z,7.51
2022-11-26T10:25:41.446Z,7.57
2022-11-26T10:26:41.435Z,7.66
2022-11-26T10:27:41.418Z,7.71
2022-11-26T10:28:41.432Z,7.76
2022-11-26T10:29:41.395Z,7.74
2022-11-26T10:30:41.384Z,7.73
2022-11-26T10:31:41.425Z,7.73
2022-11-26T10:32:41.363Z,7.79
2022-11-26T10:33:41.351Z,7.82
2022-11-26T10:34:41.756Z,7.82
2022-11-26T10:35:41.357Z,7.86
2022-11-26T10:36:41.319Z,7.88
2022-11-26T10:37:41.312Z,7.88
2022-11-26T10:38:41.299Z,7.96
2022-11-26T10:39:41.288Z,8.03
2022-11-26T10:40:41.278Z,8.09
2022-11-26T10:41:41.262Z,8.14
2022-11-26T10:42:41.252Z,8.17
2022-11-26T10:43:41.245Z,8.20
2022-11-26T10:44:41.798Z,8.22
2022-11-26T10:45:41.217Z,8.21
2022-11-26T10:46:41.272Z,8.21
2022-11-26T10:47:41.195Z,8.31
2022-11-26T10:48:41.185Z,8.31
2022-11-26T10:49:41.177Z,8.32
2022-11-26T10:50:47.658Z,8.31
2022-11-26T10:51:42.178Z,8.36
2022-11-26T10:52:41.153Z,8.47
2022-11-26T10:53:41.132Z,8.52
2022-11-26T10:54:41.672Z,8.50
2022-11-26T10:55:41.113Z,8.47
2022-11-26T10:56:41.099Z,8.50
2022-11-26T10:57:41.084Z,8.49
2022-11-26T10:58:41.074Z,8.45
2022-11-26T10:59:41.479Z,8.36
2022-11-26T11:00:41.128Z,8.32
2022-11-26T11:01:41.117Z,8.32
2022-11-26T11:02:41.062Z,8.32
2022-11-26T11:04:09.477Z,8.36
2022-11-26T11:04:42.288Z,8.40
2022-11-26T11:05:40.994Z,8.43
2022-11-26T11:06:40.983Z,8.46
2022-11-26T11:07:41.086Z,8.46
2022-11-26T11:08:40.962Z,8.45
2022-11-26T11:09:40.947Z,8.42
2022-11-26T11:10:40.939Z,8.34
2022-11-26T11:11:40.926Z,8.31
2022-11-26T11:12:40.914Z,8.27
2022-11-26T11:13:40.902Z,8.24
2022-11-26T11:14:43.564Z,8.25
2022-11-26T11:15:40.878Z,8.25
2022-11-26T11:16:41.006Z,8.25
2022-11-26T11:17:40.856Z,8.22
2022-11-26T11:18:40.846Z,8.25
2022-11-26T11:19:40.854Z,8.25
2022-11-26T11:20:40.826Z,8.28
2022-11-26T11:21:46.615Z,8.27
2022-11-26T11:22:41.828Z,8.27
2022-11-26T11:24:07.070Z,8.25
2022-11-26T11:24:42.056Z,8.25
2022-11-26T11:25:40.766Z,8.27
2022-11-26T11:26:40.755Z,8.32
2022-11-26T11:27:40.746Z,8.34
2022-11-26T11:28:40.738Z,8.36
2022-11-26T11:29:40.723Z,8.36
2022-11-26T11:30:40.709Z,8.42
2022-11-26T11:31:40.743Z,8.40
2022-11-26T11:32:40.746Z,8.43
2022-11-26T11:33:40.674Z,8.46
2022-11-26T11:34:40.953Z,8.52
2022-11-26T11:35:40.652Z,8.58
2022-11-26T11:36:40.642Z,8.58
2022-11-26T11:37:40.631Z,8.61
2022-11-26T11:38:40.620Z,8.58
2022-11-26T11:39:40.615Z,8.63
2022-11-26T11:40:40.601Z,8.64
2022-11-26T11:41:40.589Z,8.67
2022-11-26T11:42:40.608Z,8.63
2022-11-26T11:43:40.565Z,8.64
2022-11-26T11:44:40.913Z,8.68
2022-11-26T11:45:40.673Z,8.73
2022-11-26T11:46:40.534Z,8.73
2022-11-26T11:47:40.516Z,8.76
2022-11-26T11:48:40.532Z,8.79
2022-11-26T11:49:40.497Z,8.82
2022-11-26T11:50:40.490Z,8.85
2022-11-26T11:51:40.474Z,8.85
2022-11-26T11:52:40.464Z,8.86
2022-11-26T11:53:40.449Z,8.91
2022-11-26T11:54:40.986Z,8.93
2022-11-26T11:55:40.432Z,8.93
2022-11-26T11:56:40.420Z,8.89
2022-11-26T11:57:40.412Z,8.83
2022-11-26T11:58:40.397Z,8.78
2022-11-26T11:59:40.382Z,8.71
2022-11-26T12:00:40.377Z,8.67
2022-11-26T12:01:40.406Z,8.67
2022-11-26T12:02:40.351Z,8.68
2022-11-26T12:03:40.373Z,8.80
2022-11-26T12:04:40.589Z,8.91
2022-11-26T12:05:40.319Z,9.01
2022-11-26T12:06:40.308Z,9.06
2022-11-26T12:07:40.368Z,9.06
2022-11-26T12:08:40.285Z,9.04
2022-11-26T12:09:40.274Z,9.01
2022-11-26T12:10:40.264Z,8.97
2022-11-26T12:11:40.253Z,8.97
2022-11-26T12:12:40.240Z,8.93
2022-11-26T12:13:40.229Z,8.88
2022-11-26T12:14:40.213Z,8.89
2022-11-26T12:15:40.206Z,8.91
2022-11-26T12:16:40.263Z,8.86
2022-11-26T12:17:40.189Z,8.86
2022-11-26T12:18:40.170Z,8.91
2022-11-26T12:19:40.162Z,8.91
2022-11-26T12:20:40.171Z,8.94
2022-11-26T12:21:40.143Z,8.96
2022-11-26T12:22:40.126Z,8.91
2022-11-26T12:23:40.118Z,8.89
2022-11-26T12:24:40.371Z,8.82
2022-11-26T12:25:40.094Z,8.80
2022-11-26T12:26:40.081Z,8.79
2022-11-26T12:27:40.072Z,8.79
2022-11-26T12:28:40.066Z,8.79
2022-11-26T12:29:40.052Z,8.80
2022-11-26T12:30:40.108Z,8.78
2022-11-26T12:31:40.099Z,8.78
2022-11-26T12:32:40.014Z,8.73
2022-11-26T12:33:40.006Z,8.75
2022-11-26T12:34:40.399Z,8.73
2022-11-26T12:35:39.984Z,8.71
2022-11-26T12:36:39.994Z,8.68
2022-11-26T12:37:39.962Z,8.63
2022-11-26T12:38:39.949Z,8.64
2022-11-26T12:39:39.939Z,8.67
2022-11-26T12:40:39.927Z,8.68
2022-11-26T12:41:39.917Z,8.63
2022-11-26T12:42:39.903Z,8.61
2022-11-26T12:43:39.892Z,8.58
2022-11-26T12:44:40.096Z,8.57
2022-11-26T12:45:39.915Z,8.58
2022-11-26T12:46:39.856Z,8.61
2022-11-26T12:47:39.851Z,8.61
2022-11-26T12:48:39.838Z,8.55
2022-11-26T12:49:39.826Z,8.43
2022-11-26T12:50:39.814Z,8.43
2022-11-26T12:51:39.804Z,8.42
2022-11-26T12:52:39.815Z,8.39
2022-11-26T12:53:39.784Z,8.40
2022-11-26T12:54:39.978Z,8.39
2022-11-26T12:55:39.765Z,8.36
2022-11-26T12:56:39.741Z,8.36
2022-11-26T12:57:39.737Z,8.39
2022-11-26T12:58:39.722Z,8.37
2022-11-26T12:59:39.713Z,8.36
2022-11-26T13:00:39.703Z,8.37
2022-11-26T13:01:39.780Z,8.36
2022-11-26T13:02:39.782Z,8.34
2022-11-26T13:03:39.672Z,8.34
2022-11-26T13:04:39.652Z,8.34
2022-11-26T13:05:39.984Z,8.37
2022-11-26T13:06:39.737Z,8.36
2022-11-26T13:07:39.764Z,8.37
2022-11-26T13:08:39.662Z,8.32
2022-11-26T13:09:39.846Z,8.34
2022-11-26T13:10:39.587Z,8.37
2022-11-26T13:11:39.581Z,8.34
2022-11-26T13:12:39.571Z,8.39
2022-11-26T13:13:39.555Z,8.37
2022-11-26T13:14:39.816Z,8.37
2022-11-26T13:15:39.533Z,8.36
2022-11-26T13:16:39.604Z,8.36
2022-11-26T13:17:39.511Z,8.34
2022-11-26T13:18:39.504Z,8.37
2022-11-26T13:19:39.798Z,8.39
2022-11-26T13:20:39.483Z,8.34
2022-11-26T13:21:39.467Z,8.36
2022-11-26T13:22:39.451Z,8.36
2022-11-26T13:23:39.476Z,8.32